sensor_id;sensor_type;location;lat;lon;timestamp;pressure;altitude;pressure_sealevel;temperature;humidity
72308;BME280;60257;42.638;23.376;2023-07-20T00:01:52;94320.94;;;21.95;59.64
72308;BME280;60257;42.638;23.376;2023-07-20T00:04:17;94317.78;;;21.93;59.19
72308;BME280;60257;42.638;23.376;2023-07-20T00:06:43;94323.00;;;21.91;60.91
72308;BME280;60257;42.638;23.376;2023-07-20T00:09:08;94343.94;;;21.79;60.52
72308;BME280;60257;42.638;23.376;2023-07-20T00:11:36;94327.63;;;21.77;60.23
72308;BME280;60257;42.638;23.376;2023-07-20T00:14:06;94325.25;;;21.76;60.99
72308;BME280;60257;42.638;23.376;2023-07-20T00:16:32;94331.75;;;21.69;60.91
72308;BME280;60257;42.638;23.376;2023-07-20T00:18:58;94325.47;;;21.65;61.50
72308;BME280;60257;42.638;23.376;2023-07-20T00:21:23;94328.31;;;21.62;60.80
72308;BME280;60257;42.638;23.376;2023-07-20T00:23:48;94319.16;;;21.61;60.65
72308;BME280;60257;42.638;23.376;2023-07-20T00:26:14;94317.81;;;21.46;62.63
72308;BME280;60257;42.638;23.376;2023-07-20T00:28:39;94318.03;;;21.35;62.86
72308;BME280;60257;42.638;23.376;2023-07-20T00:31:05;94316.81;;;21.36;62.69
72308;BME280;60257;42.638;23.376;2023-07-20T00:33:30;94314.88;;;21.33;62.72
72308;BME280;60257;42.638;23.376;2023-07-20T00:35:56;94328.44;;;21.31;62.83
72308;BME280;60257;42.638;23.376;2023-07-20T00:38:21;94324.03;;;21.34;63.13
72308;BME280;60257;42.638;23.376;2023-07-20T00:40:47;94318.84;;;21.32;63.06
72308;BME280;60257;42.638;23.376;2023-07-20T00:43:13;94312.88;;;21.34;62.57
72308;BME280;60257;42.638;23.376;2023-07-20T00:45:39;94302.53;;;21.31;62.13
72308;BME280;60257;42.638;23.376;2023-07-20T00:48:06;94293.34;;;21.34;61.96
72308;BME280;60257;42.638;23.376;2023-07-20T00:50:32;94304.88;;;21.36;61.72
72308;BME280;60257;42.638;23.376;2023-07-20T00:52:59;94289.25;;;21.38;61.18
72308;BME280;60257;42.638;23.376;2023-07-20T00:55:25;94285.75;;;21.34;61.81
72308;BME280;60257;42.638;23.376;2023-07-20T00:57:52;94290.13;;;21.35;61.35
72308;BME280;60257;42.638;23.376;2023-07-20T01:00:18;94298.63;;;21.28;61.41
72308;BME280;60257;42.638;23.376;2023-07-20T01:02:44;94302.25;;;21.25;61.30
72308;BME280;60257;42.638;23.376;2023-07-20T01:05:10;94297.09;;;21.24;62.91
72308;BME280;60257;42.638;23.376;2023-07-20T01:07:55;94304.75;;;21.20;62.49
72308;BME280;60257;42.638;23.376;2023-07-20T01:10:33;94310.31;;;21.20;62.07
72308;BME280;60257;42.638;23.376;2023-07-20T01:13:01;94320.69;;;21.16;62.86
72308;BME280;60257;42.638;23.376;2023-07-20T01:15:27;94320.44;;;21.06;63.96
72308;BME280;60257;42.638;23.376;2023-07-20T01:17:52;94326.97;;;20.96;66.36
72308;BME280;60257;42.638;23.376;2023-07-20T01:20:21;94322.34;;;20.86;66.45
72308;BME280;60257;42.638;23.376;2023-07-20T01:31:26;94313.63;;;20.23;68.92
72308;BME280;60257;42.638;23.376;2023-07-20T01:33:55;94305.34;;;20.20;68.64
72308;BME280;60257;42.638;23.376;2023-07-20T01:36:23;94309.78;;;20.14;69.54
72308;BME280;60257;42.638;23.376;2023-07-20T01:38:51;94315.06;;;20.05;70.39
72308;BME280;60257;42.638;23.376;2023-07-20T01:41:17;94318.69;;;20.02;70.41
72308;BME280;60257;42.638;23.376;2023-07-20T01:43:43;94323.44;;;20.01;70.39
72308;BME280;60257;42.638;23.376;2023-07-20T01:46:09;94317.56;;;19.95;71.05
72308;BME280;60257;42.638;23.376;2023-07-20T01:48:34;94308.84;;;19.93;70.85
72308;BME280;60257;42.638;23.376;2023-07-20T01:51:00;94308.09;;;19.89;70.77
72308;BME280;60257;42.638;23.376;2023-07-20T01:53:25;94304.53;;;19.85;70.78
72308;BME280;60257;42.638;23.376;2023-07-20T01:55:54;94311.28;;;19.88;72.18
72308;BME280;60257;42.638;23.376;2023-07-20T01:58:20;94312.09;;;19.85;71.79
72308;BME280;60257;42.638;23.376;2023-07-20T02:00:45;94306.94;;;19.83;71.20
72308;BME280;60257;42.638;23.376;2023-07-20T02:03:11;94299.03;;;19.82;71.44
72308;BME280;60257;42.638;23.376;2023-07-20T02:05:37;94290.69;;;19.82;70.67
72308;BME280;60257;42.638;23.376;2023-07-20T02:08:03;94293.41;;;19.85;70.21
72308;BME280;60257;42.638;23.376;2023-07-20T02:10:28;94287.84;;;19.85;70.46
72308;BME280;60257;42.638;23.376;2023-07-20T02:12:54;94294.22;;;19.86;70.15
72308;BME280;60257;42.638;23.376;2023-07-20T02:15:19;94291.84;;;19.84;70.49
72308;BME280;60257;42.638;23.376;2023-07-20T02:17:46;94289.84;;;19.85;70.64
72308;BME280;60257;42.638;23.376;2023-07-20T02:20:12;94292.22;;;19.86;70.83
72308;BME280;60257;42.638;23.376;2023-07-20T02:22:38;94292.25;;;19.83;70.98
72308;BME280;60257;42.638;23.376;2023-07-20T02:25:05;94298.97;;;19.85;70.30
72308;BME280;60257;42.638;23.376;2023-07-20T02:27:30;94293.81;;;19.87;69.50
72308;BME280;60257;42.638;23.376;2023-07-20T02:29:56;94293.41;;;19.89;69.60
72308;BME280;60257;42.638;23.376;2023-07-20T02:32:21;94291.81;;;19.88;70.15
72308;BME280;60257;42.638;23.376;2023-07-20T02:34:47;94297.78;;;19.86;71.10
72308;BME280;60257;42.638;23.376;2023-07-20T02:37:12;94290.25;;;19.83;70.75
72308;BME280;60257;42.638;23.376;2023-07-20T02:39:39;94297.47;;;19.81;70.52
72308;BME280;60257;42.638;23.376;2023-07-20T02:42:05;94296.31;;;19.75;71.45
72308;BME280;60257;42.638;23.376;2023-07-20T02:44:30;94281.28;;;19.69;72.17
72308;BME280;60257;42.638;23.376;2023-07-20T02:46:56;94276.09;;;19.71;71.65
72308;BME280;60257;42.638;23.376;2023-07-20T02:49:21;94277.31;;;19.70;71.52
72308;BME280;60257;42.638;23.376;2023-07-20T02:51:47;94268.22;;;19.66;72.62
72308;BME280;60257;42.638;23.376;2023-07-20T02:54:12;94260.28;;;19.64;73.41
72308;BME280;60257;42.638;23.376;2023-07-20T02:56:38;94267.03;;;19.63;73.11
72308;BME280;60257;42.638;23.376;2023-07-20T02:59:03;94265.88;;;19.60;72.79
72308;BME280;60257;42.638;23.376;2023-07-20T03:01:29;94271.84;;;19.59;72.39
72308;BME280;60257;42.638;23.376;2023-07-20T03:03:55;94266.28;;;19.59;72.62
72308;BME280;60257;42.638;23.376;2023-07-20T03:06:21;94271.50;;;19.57;71.91
72308;BME280;60257;42.638;23.376;2023-07-20T03:08:46;94270.28;;;19.58;71.66
72308;BME280;60257;42.638;23.376;2023-07-20T03:11:16;94280.19;;;19.59;71.20
72308;BME280;60257;42.638;23.376;2023-07-20T03:13:42;94275.78;;;19.62;70.29
72308;BME280;60257;42.638;23.376;2023-07-20T03:16:09;94274.63;;;19.59;70.25
72308;BME280;60257;42.638;23.376;2023-07-20T03:18:39;94278.63;;;19.58;69.92
72308;BME280;60257;42.638;23.376;2023-07-20T03:21:06;94277.88;;;19.54;70.63
72308;BME280;60257;42.638;23.376;2023-07-20T03:23:32;94288.53;;;19.59;69.43
72308;BME280;60257;42.638;23.376;2023-07-20T03:25:58;94283.03;;;19.55;69.71
72308;BME280;60257;42.638;23.376;2023-07-20T03:28:23;94288.13;;;19.60;69.32
72308;BME280;60257;42.638;23.376;2023-07-20T03:30:58;94289.28;;;19.67;70.57
72308;BME280;60257;42.638;23.376;2023-07-20T03:33:28;94305.09;;;19.73;70.13
72308;BME280;60257;42.638;23.376;2023-07-20T03:35:55;94292.31;;;19.76;70.62
72308;BME280;60257;42.638;23.376;2023-07-20T03:38:22;94292.31;;;19.79;70.90
72308;BME280;60257;42.638;23.376;2023-07-20T03:40:51;94287.91;;;19.82;70.91
72308;BME280;60257;42.638;23.376;2023-07-20T03:43:17;94293.81;;;19.84;71.33
72308;BME280;60257;42.638;23.376;2023-07-20T03:45:42;94283.88;;;19.86;71.13
72308;BME280;60257;42.638;23.376;2023-07-20T03:48:08;94295.72;;;19.90;70.21
72308;BME280;60257;42.638;23.376;2023-07-20T03:50:33;94295.72;;;19.94;69.96
72308;BME280;60257;42.638;23.376;2023-07-20T03:52:59;94298.09;;;19.95;69.92
72308;BME280;60257;42.638;23.376;2023-07-20T03:55:24;94297.28;;;19.95;69.62
72308;BME280;60257;42.638;23.376;2023-07-20T03:57:50;94302.34;;;20.04;68.27
72308;BME280;60257;42.638;23.376;2023-07-20T04:00:17;94301.47;;;20.10;68.13
72308;BME280;60257;42.638;23.376;2023-07-20T04:02:42;94300.69;;;20.10;67.93
72308;BME280;60257;42.638;23.376;2023-07-20T04:05:08;94307.84;;;20.11;69.62
72308;BME280;60257;42.638;23.376;2023-07-20T04:07:33;94310.94;;;20.16;69.78
72308;BME280;60257;42.638;23.376;2023-07-20T04:09:59;94310.53;;;20.18;69.41
72308;BME280;60257;42.638;23.376;2023-07-20T04:12:24;94302.88;;;20.25;69.40
72308;BME280;60257;42.638;23.376;2023-07-20T04:14:50;94290.56;;;20.23;69.44
72308;BME280;60257;42.638;23.376;2023-07-20T04:17:15;94293.91;;;20.11;69.59
72308;BME280;60257;42.638;23.376;2023-07-20T04:19:40;94302.34;;;20.04;69.89
72308;BME280;60257;42.638;23.376;2023-07-20T04:22:06;94293.22;;;20.03;69.84
72308;BME280;60257;42.638;23.376;2023-07-20T04:24:31;94292.47;;;19.99;69.25
72308;BME280;60257;42.638;23.376;2023-07-20T04:26:57;94288.44;;;20.04;68.59
72308;BME280;60257;42.638;23.376;2023-07-20T04:29:22;94291.22;;;20.04;68.51
72308;BME280;60257;42.638;23.376;2023-07-20T04:31:48;94285.16;;;20.12;68.64
72308;BME280;60257;42.638;23.376;2023-07-20T04:34:13;94283.41;;;20.22;68.67
72308;BME280;60257;42.638;23.376;2023-07-20T04:36:39;94285.28;;;20.35;68.38
72308;BME280;60257;42.638;23.376;2023-07-20T04:39:04;94284.81;;;20.41;68.77
72308;BME280;60257;42.638;23.376;2023-07-20T04:41:30;94287.91;;;20.46;68.28
72308;BME280;60257;42.638;23.376;2023-07-20T04:43:56;94274.31;;;20.52;67.73
72308;BME280;60257;42.638;23.376;2023-07-20T04:46:21;94272.13;;;20.63;66.93
72308;BME280;60257;42.638;23.376;2023-07-20T04:48:47;94269.13;;;20.77;67.20
72308;BME280;60257;42.638;23.376;2023-07-20T04:51:13;94276.44;;;20.94;66.07
72308;BME280;60257;42.638;23.376;2023-07-20T04:53:38;94270.16;;;21.13;66.14
72308;BME280;60257;42.638;23.376;2023-07-20T04:56:04;94258.91;;;21.21;64.54
72308;BME280;60257;42.638;23.376;2023-07-20T04:58:29;94270.94;;;21.37;64.59
72308;BME280;60257;42.638;23.376;2023-07-20T05:00:55;94267.00;;;21.58;64.14
72308;BME280;60257;42.638;23.376;2023-07-20T05:03:20;94268.69;;;21.75;64.45
72308;BME280;60257;42.638;23.376;2023-07-20T05:05:49;94265.19;;;21.91;63.68
72308;BME280;60257;42.638;23.376;2023-07-20T05:08:15;94265.25;;;22.07;62.84
72308;BME280;60257;42.638;23.376;2023-07-20T05:10:41;94266.97;;;22.21;62.12
72308;BME280;60257;42.638;23.376;2023-07-20T05:13:06;94263.94;;;22.32;60.26
72308;BME280;60257;42.638;23.376;2023-07-20T05:15:33;94261.34;;;22.41;59.15
72308;BME280;60257;42.638;23.376;2023-07-20T05:18:00;94274.75;;;22.49;58.76
72308;BME280;60257;42.638;23.376;2023-07-20T05:20:25;94271.09;;;22.52;59.18
72308;BME280;60257;42.638;23.376;2023-07-20T05:22:51;94269.41;;;22.55;58.69
72308;BME280;60257;42.638;23.376;2023-07-20T05:25:18;94270.22;;;22.55;58.12
72308;BME280;60257;42.638;23.376;2023-07-20T05:27:44;94275.31;;;22.60;58.27
72308;BME280;60257;42.638;23.376;2023-07-20T05:30:10;94272.16;;;22.58;58.98
72308;BME280;60257;42.638;23.376;2023-07-20T05:32:36;94268.41;;;22.65;58.64
72308;BME280;60257;42.638;23.376;2023-07-20T05:35:01;94283.44;;;22.71;57.63
72308;BME280;60257;42.638;23.376;2023-07-20T05:37:27;94279.72;;;22.78;58.49
72308;BME280;60257;42.638;23.376;2023-07-20T05:39:52;94285.84;;;22.89;57.23
72308;BME280;60257;42.638;23.376;2023-07-20T05:42:18;94279.91;;;22.87;56.60
72308;BME280;60257;42.638;23.376;2023-07-20T05:44:43;94286.38;;;23.00;55.86
72308;BME280;60257;42.638;23.376;2023-07-20T05:47:09;94280.03;;;22.99;55.82
72308;BME280;60257;42.638;23.376;2023-07-20T05:49:35;94292.09;;;23.13;55.34
72308;BME280;60257;42.638;23.376;2023-07-20T05:52:00;94300.56;;;23.25;55.56
72308;BME280;60257;42.638;23.376;2023-07-20T05:54:26;94295.84;;;23.22;54.85
72308;BME280;60257;42.638;23.376;2023-07-20T05:56:52;94294.88;;;23.29;54.75
72308;BME280;60257;42.638;23.376;2023-07-20T05:59:18;94296.88;;;23.45;55.49
72308;BME280;60257;42.638;23.376;2023-07-20T06:01:45;94292.25;;;23.54;54.88
72308;BME280;60257;42.638;23.376;2023-07-20T06:04:10;94285.16;;;23.66;54.74
72308;BME280;60257;42.638;23.376;2023-07-20T06:06:36;94289.50;;;23.83;55.27
72308;BME280;60257;42.638;23.376;2023-07-20T06:09:02;94284.16;;;23.89;54.86
72308;BME280;60257;42.638;23.376;2023-07-20T06:11:33;94284.50;;;23.91;53.76
72308;BME280;60257;42.638;23.376;2023-07-20T06:13:59;94285.75;;;23.73;54.28
72308;BME280;60257;42.638;23.376;2023-07-20T06:16:24;94284.97;;;23.73;54.27
72308;BME280;60257;42.638;23.376;2023-07-20T06:18:50;94279.31;;;23.60;57.62
72308;BME280;60257;42.638;23.376;2023-07-20T06:21:15;94280.25;;;23.70;55.12
72308;BME280;60257;42.638;23.376;2023-07-20T06:23:41;94276.53;;;23.89;58.26
72308;BME280;60257;42.638;23.376;2023-07-20T06:26:07;94268.13;;;23.89;55.08
72308;BME280;60257;42.638;23.376;2023-07-20T06:28:33;94264.06;;;24.06;56.52
72308;BME280;60257;42.638;23.376;2023-07-20T06:31:02;94270.94;;;23.89;54.38
72308;BME280;60257;42.638;23.376;2023-07-20T06:33:28;94259.34;;;24.03;54.90
72308;BME280;60257;42.638;23.376;2023-07-20T06:35:53;94255.44;;;24.13;54.70
72308;BME280;60257;42.638;23.376;2023-07-20T06:38:19;94276.34;;;24.25;54.29
72308;BME280;60257;42.638;23.376;2023-07-20T06:40:48;94271.09;;;24.40;51.77
72308;BME280;60257;42.638;23.376;2023-07-20T06:43:13;94272.38;;;24.51;52.45
72308;BME280;60257;42.638;23.376;2023-07-20T06:45:39;94257.44;;;24.54;52.30
72308;BME280;60257;42.638;23.376;2023-07-20T06:48:04;94260.38;;;24.64;52.15
72308;BME280;60257;42.638;23.376;2023-07-20T06:50:30;94267.47;;;24.81;51.34
72308;BME280;60257;42.638;23.376;2023-07-20T06:52:55;94267.03;;;24.95;50.95
72308;BME280;60257;42.638;23.376;2023-07-20T06:55:21;94270.53;;;24.99;50.64
72308;BME280;60257;42.638;23.376;2023-07-20T06:57:46;94264.56;;;25.10;50.61
72308;BME280;60257;42.638;23.376;2023-07-20T07:00:12;94268.63;;;25.21;50.56
72308;BME280;60257;42.638;23.376;2023-07-20T07:02:38;94276.31;;;25.43;50.54
72308;BME280;60257;42.638;23.376;2023-07-20T07:05:04;94288.22;;;25.59;50.00
72308;BME280;60257;42.638;23.376;2023-07-20T07:07:29;94288.94;;;25.85;49.19
72308;BME280;60257;42.638;23.376;2023-07-20T07:09:55;94290.59;;;26.17;49.14
72308;BME280;60257;42.638;23.376;2023-07-20T07:12:20;94286.66;;;26.27;48.17
72308;BME280;60257;42.638;23.376;2023-07-20T07:14:46;94285.53;;;26.25;48.12
72308;BME280;60257;42.638;23.376;2023-07-20T07:17:11;94303.25;;;26.34;47.12
72308;BME280;60257;42.638;23.376;2023-07-20T07:19:37;94308.69;;;26.29;47.43
72308;BME280;60257;42.638;23.376;2023-07-20T07:22:04;94319.75;;;26.11;48.49
72308;BME280;60257;42.638;23.376;2023-07-20T07:24:29;94331.28;;;25.91;49.84
72308;BME280;60257;42.638;23.376;2023-07-20T07:26:59;94334.25;;;25.75;50.71
72308;BME280;60257;42.638;23.376;2023-07-20T07:29:24;94340.41;;;25.82;51.05
72308;BME280;60257;42.638;23.376;2023-07-20T07:31:51;94329.63;;;25.81;51.17
72308;BME280;60257;42.638;23.376;2023-07-20T07:34:16;94336.66;;;25.98;51.04
72308;BME280;60257;42.638;23.376;2023-07-20T07:36:42;94338.78;;;26.06;49.40
72308;BME280;60257;42.638;23.376;2023-07-20T07:39:08;94334.03;;;26.03;49.73
72308;BME280;60257;42.638;23.376;2023-07-20T07:41:34;94329.25;;;25.91;50.17
72308;BME280;60257;42.638;23.376;2023-07-20T07:44:00;94322.50;;;26.01;50.27
72308;BME280;60257;42.638;23.376;2023-07-20T07:46:25;94319.44;;;26.09;50.19
72308;BME280;60257;42.638;23.376;2023-07-20T07:48:51;94323.69;;;26.13;49.79
72308;BME280;60257;42.638;23.376;2023-07-20T07:51:16;94321.13;;;26.06;49.97
72308;BME280;60257;42.638;23.376;2023-07-20T07:53:42;94308.38;;;26.14;49.58
72308;BME280;60257;42.638;23.376;2023-07-20T07:56:09;94290.94;;;26.19;49.47
72308;BME280;60257;42.638;23.376;2023-07-20T07:58:34;94271.25;;;26.19;48.82
72308;BME280;60257;42.638;23.376;2023-07-20T08:01:00;94276.09;;;26.19;49.44
72308;BME280;60257;42.638;23.376;2023-07-20T08:03:25;94294.25;;;26.05;49.18
72308;BME280;60257;42.638;23.376;2023-07-20T08:05:54;94285.91;;;26.14;49.24
72308;BME280;60257;42.638;23.376;2023-07-20T08:08:26;94274.41;;;26.21;48.60
72308;BME280;60257;42.638;23.376;2023-07-20T08:10:54;94296.00;;;26.24;49.39
72308;BME280;60257;42.638;23.376;2023-07-20T08:13:20;94306.00;;;26.25;49.09
72308;BME280;60257;42.638;23.376;2023-07-20T08:15:50;94318.69;;;26.30;48.95
72308;BME280;60257;42.638;23.376;2023-07-20T08:18:17;94331.97;;;26.29;49.17
72308;BME280;60257;42.638;23.376;2023-07-20T08:20:46;94332.50;;;26.37;49.61
72308;BME280;60257;42.638;23.376;2023-07-20T08:23:12;94319.34;;;26.34;50.54
72308;BME280;60257;42.638;23.376;2023-07-20T08:25:39;94342.25;;;26.45;51.04
72308;BME280;60257;42.638;23.376;2023-07-20T08:28:07;94336.47;;;26.49;49.75
72308;BME280;60257;42.638;23.376;2023-07-20T08:30:44;94343.88;;;26.55;50.24
72308;BME280;60257;42.638;23.376;2023-07-20T08:33:12;94323.94;;;26.62;49.89
72308;BME280;60257;42.638;23.376;2023-07-20T08:35:38;94295.16;;;26.36;51.52
72308;BME280;60257;42.638;23.376;2023-07-20T08:38:03;94333.53;;;26.18;52.90
72308;BME280;60257;42.638;23.376;2023-07-20T08:40:31;94331.91;;;26.08;52.36
72308;BME280;60257;42.638;23.376;2023-07-20T08:42:59;94347.25;;;25.94;51.12
72308;BME280;60257;42.638;23.376;2023-07-20T08:45:27;94323.56;;;25.82;51.45
72308;BME280;60257;42.638;23.376;2023-07-20T08:47:56;94327.34;;;25.88;50.14
72308;BME280;60257;42.638;23.376;2023-07-20T08:50:23;94337.56;;;25.95;48.28
72308;BME280;60257;42.638;23.376;2023-07-20T08:52:52;94326.66;;;25.97;48.11
72308;BME280;60257;42.638;23.376;2023-07-20T08:55:20;94321.91;;;26.06;47.93
72308;BME280;60257;42.638;23.376;2023-07-20T08:57:46;94322.56;;;26.11;46.28
72308;BME280;60257;42.638;23.376;2023-07-20T09:00:15;94321.97;;;25.94;46.28
72308;BME280;60257;42.638;23.376;2023-07-20T09:02:45;94313.53;;;25.94;46.94
72308;BME280;60257;42.638;23.376;2023-07-20T09:05:11;94315.88;;;25.95;46.99
72308;BME280;60257;42.638;23.376;2023-07-20T09:07:39;94300.03;;;26.01;47.59
72308;BME280;60257;42.638;23.376;2023-07-20T09:10:05;94313.47;;;26.06;46.62
72308;BME280;60257;42.638;23.376;2023-07-20T09:12:57;94302.94;;;25.98;46.55
72308;BME280;60257;42.638;23.376;2023-07-20T09:15:23;94293.34;;;26.08;46.35
72308;BME280;60257;42.638;23.376;2023-07-20T09:17:50;94321.72;;;26.23;45.23
72308;BME280;60257;42.638;23.376;2023-07-20T09:20:17;94295.19;;;26.24;44.99
72308;BME280;60257;42.638;23.376;2023-07-20T09:22:43;94295.50;;;26.38;44.44
72308;BME280;60257;42.638;23.376;2023-07-20T09:25:14;94294.50;;;26.32;45.18
72308;BME280;60257;42.638;23.376;2023-07-20T09:27:42;94287.06;;;26.38;45.44
72308;BME280;60257;42.638;23.376;2023-07-20T09:30:08;94292.47;;;26.55;43.62
72308;BME280;60257;42.638;23.376;2023-07-20T09:32:47;94283.03;;;26.70;44.53
72308;BME280;60257;42.638;23.376;2023-07-20T09:35:14;94277.44;;;26.79;43.81
72308;BME280;60257;42.638;23.376;2023-07-20T09:37:48;94293.41;;;26.82;42.93
72308;BME280;60257;42.638;23.376;2023-07-20T09:40:17;94286.72;;;26.89;42.19
72308;BME280;60257;42.638;23.376;2023-07-20T09:42:43;94289.00;;;27.03;41.62
72308;BME280;60257;42.638;23.376;2023-07-20T09:45:09;94282.97;;;27.14;41.79
72308;BME280;60257;42.638;23.376;2023-07-20T09:47:38;94278.19;;;27.33;41.43
72308;BME280;60257;42.638;23.376;2023-07-20T09:50:06;94266.31;;;27.38;40.94
72308;BME280;60257;42.638;23.376;2023-07-20T09:52:38;94275.09;;;27.40;39.92
72308;BME280;60257;42.638;23.376;2023-07-20T09:55:05;94275.41;;;27.51;38.07
72308;BME280;60257;42.638;23.376;2023-07-20T09:57:33;94266.72;;;27.76;39.61
72308;BME280;60257;42.638;23.376;2023-07-20T09:59:59;94265.81;;;27.98;39.59
72308;BME280;60257;42.638;23.376;2023-07-20T10:02:32;94247.31;;;28.42;38.36
72308;BME280;60257;42.638;23.376;2023-07-20T10:05:02;94243.03;;;28.65;37.99
72308;BME280;60257;42.638;23.376;2023-07-20T10:07:30;94252.31;;;28.56;37.45
72308;BME280;60257;42.638;23.376;2023-07-20T10:09:58;94250.00;;;28.27;37.79
72308;BME280;60257;42.638;23.376;2023-07-20T10:12:25;94252.66;;;28.31;37.87
72308;BME280;60257;42.638;23.376;2023-07-20T10:15:18;94255.78;;;28.06;38.16
72308;BME280;60257;42.638;23.376;2023-07-20T10:18:41;94246.38;;;27.90;37.83
72308;BME280;60257;42.638;23.376;2023-07-20T10:20:56;94258.91;;;28.08;36.65
72308;BME280;60257;42.638;23.376;2023-07-20T10:23:26;94253.00;;;28.33;36.54
72308;BME280;60257;42.638;23.376;2023-07-20T10:25:54;94253.91;;;28.48;35.36
72308;BME280;60257;42.638;23.376;2023-07-20T10:28:20;94264.41;;;28.57;34.48
72308;BME280;60257;42.638;23.376;2023-07-20T10:30:46;94265.47;;;28.68;35.19
72308;BME280;60257;42.638;23.376;2023-07-20T10:33:12;94268.41;;;28.92;35.40
72308;BME280;60257;42.638;23.376;2023-07-20T10:35:52;94267.38;;;29.14;35.49
72308;BME280;60257;42.638;23.376;2023-07-20T10:38:17;94252.47;;;29.13;35.35
72308;BME280;60257;42.638;23.376;2023-07-20T10:40:54;94258.88;;;29.23;34.41
72308;BME280;60257;42.638;23.376;2023-07-20T10:43:19;94254.44;;;29.40;34.28
72308;BME280;60257;42.638;23.376;2023-07-20T10:45:52;94267.28;;;29.41;33.71
72308;BME280;60257;42.638;23.376;2023-07-20T10:48:22;94251.28;;;29.38;34.62
72308;BME280;60257;42.638;23.376;2023-07-20T10:51:12;94237.47;;;29.40;35.51
72308;BME280;60257;42.638;23.376;2023-07-20T10:53:39;94191.97;;;29.38;35.89
72308;BME280;60257;42.638;23.376;2023-07-20T10:56:20;94182.66;;;29.46;36.29
72308;BME280;60257;42.638;23.376;2023-07-20T10:58:46;94213.47;;;29.35;36.42
72308;BME280;60257;42.638;23.376;2023-07-20T11:01:16;94231.94;;;29.45;36.27
72308;BME280;60257;42.638;23.376;2023-07-20T11:03:43;94210.97;;;29.61;35.32
72308;BME280;60257;42.638;23.376;2023-07-20T11:09:12;94185.34;;;29.89;34.48
72308;BME280;60257;42.638;23.376;2023-07-20T11:11:43;94172.13;;;29.95;34.06
72308;BME280;60257;42.638;23.376;2023-07-20T11:14:11;94179.94;;;30.00;33.39
72308;BME280;60257;42.638;23.376;2023-07-20T11:16:46;94171.53;;;30.05;33.83
72308;BME280;60257;42.638;23.376;2023-07-20T11:19:25;94182.88;;;30.20;34.32
72308;BME280;60257;42.638;23.376;2023-07-20T11:21:55;94192.25;;;30.26;34.24
72308;BME280;60257;42.638;23.376;2023-07-20T11:24:21;94181.72;;;30.27;33.65
72308;BME280;60257;42.638;23.376;2023-07-20T11:26:48;94177.50;;;30.22;34.06
72308;BME280;60257;42.638;23.376;2023-07-20T11:29:16;94180.25;;;30.46;33.95
72308;BME280;60257;42.638;23.376;2023-07-20T11:31:43;94177.56;;;30.51;34.18
72308;BME280;60257;42.638;23.376;2023-07-20T11:36:40;94167.50;;;30.80;33.99
72308;BME280;60257;42.638;23.376;2023-07-20T11:39:08;94169.91;;;31.02;34.23
72308;BME280;60257;42.638;23.376;2023-07-20T11:41:34;94161.03;;;31.09;33.86
72308;BME280;60257;42.638;23.376;2023-07-20T11:44:00;94154.03;;;30.75;34.04
72308;BME280;60257;42.638;23.376;2023-07-20T11:46:27;94148.25;;;30.84;34.59
72308;BME280;60257;42.638;23.376;2023-07-20T11:48:59;94145.41;;;30.84;34.75
72308;BME280;60257;42.638;23.376;2023-07-20T11:51:27;94152.56;;;30.79;34.33
72308;BME280;60257;42.638;23.376;2023-07-20T11:53:53;94133.94;;;30.73;34.44
72308;BME280;60257;42.638;23.376;2023-07-20T11:56:19;94134.13;;;30.69;34.39
72308;BME280;60257;42.638;23.376;2023-07-20T11:58:45;94135.09;;;30.51;34.84
72308;BME280;60257;42.638;23.376;2023-07-20T12:01:14;94125.66;;;30.54;35.44
72308;BME280;60257;42.638;23.376;2023-07-20T12:03:42;94133.25;;;30.63;35.83
72308;BME280;60257;42.638;23.376;2023-07-20T12:06:10;94120.84;;;30.75;35.29
72308;BME280;60257;42.638;23.376;2023-07-20T12:08:42;94122.00;;;30.83;35.24
72308;BME280;60257;42.638;23.376;2023-07-20T12:11:09;94112.09;;;30.93;34.17
72308;BME280;60257;42.638;23.376;2023-07-20T12:13:36;94128.91;;;30.82;34.84
72308;BME280;60257;42.638;23.376;2023-07-20T12:16:16;94115.72;;;30.94;34.85
72308;BME280;60257;42.638;23.376;2023-07-20T12:18:43;94120.41;;;30.97;33.83
72308;BME280;60257;42.638;23.376;2023-07-20T12:21:09;94111.81;;;30.91;32.16
72308;BME280;60257;42.638;23.376;2023-07-20T12:23:39;94103.06;;;30.89;32.59
72308;BME280;60257;42.638;23.376;2023-07-20T12:26:09;94110.88;;;30.80;31.61
72308;BME280;60257;42.638;23.376;2023-07-20T12:28:41;94095.56;;;30.72;32.78
72308;BME280;60257;42.638;23.376;2023-07-20T12:31:10;94106.38;;;30.88;32.76
72308;BME280;60257;42.638;23.376;2023-07-20T12:33:37;94098.03;;;30.64;31.65
72308;BME280;60257;42.638;23.376;2023-07-20T12:36:03;94093.53;;;30.72;31.87
72308;BME280;60257;42.638;23.376;2023-07-20T12:38:29;94095.84;;;30.88;31.01
72308;BME280;60257;42.638;23.376;2023-07-20T12:40:56;94102.03;;;31.07;30.83
72308;BME280;60257;42.638;23.376;2023-07-20T12:43:22;94094.47;;;31.19;31.02
72308;BME280;60257;42.638;23.376;2023-07-20T12:45:48;94082.09;;;31.16;31.16
72308;BME280;60257;42.638;23.376;2023-07-20T12:48:13;94100.22;;;31.45;30.90
72308;BME280;60257;42.638;23.376;2023-07-20T12:50:39;94073.59;;;31.16;30.40
72308;BME280;60257;42.638;23.376;2023-07-20T12:53:04;94099.25;;;31.27;30.24
72308;BME280;60257;42.638;23.376;2023-07-20T12:55:30;94074.91;;;31.21;29.60
72308;BME280;60257;42.638;23.376;2023-07-20T12:57:56;94091.09;;;31.35;28.44
72308;BME280;60257;42.638;23.376;2023-07-20T13:00:22;94086.63;;;31.49;27.09
72308;BME280;60257;42.638;23.376;2023-07-20T13:02:48;94090.72;;;31.48;27.12
72308;BME280;60257;42.638;23.376;2023-07-20T13:05:14;94092.16;;;31.58;27.25